EGGP Airport Information

Runway Information
Runway 09 Length 7497 ft width 150 ft
Elevation 59 ft Threshold 200 ft Heading 86
Runway 27 Length 7497 ft Width 150 ft
Elevation 77 ft Threshold ft Heading 266
Airport Frequencies
Type APP Name APP Frequency 119.85 MHZ
Type ATIS Name ATIS Frequency 124.325 MHZ
Type GND Name GND Frequency 121.95 MHZ
Type TWR Name TWR Frequency 126.35 MHZ
Airport Navaids
Airport Weather Information & NOTAM
ADDS - METARS form results

(0716 UTC 13 August 2022)
Data provider http://aviationweather.gov/metar/data/
 
METAR text: EGGP 130650Z 08007KT CAVOK 19/12 Q1017
Conditions at: EGGP (LIVERPOOL AIRPOR, GB) observed 0650 UTC 13 August 2022
Temperature: 19.0°C (66°F)
Dewpoint: 12.0°C (54°F) [RH = 64%]
Pressure (altimeter): 30.03 inches Hg (1017.0 mb)
Winds: from the E (80 degrees) at 8 MPH (7 knots; 3.6 m/s)
Visibility: 6 or more miles (10+ km)
Ceiling: ceiling and visibility are OK
Clouds: unknown
Weather: no significant weather observed at this time

METAR text: EGGP 130620Z 07008KT CAVOK 19/13 Q1017
Conditions at: EGGP (LIVERPOOL AIRPOR, GB) observed 0620 UTC 13 August 2022
Temperature: 19.0°C (66°F)
Dewpoint: 13.0°C (55°F) [RH = 68%]
Pressure (altimeter): 30.03 inches Hg (1017.0 mb)
Winds: from the ENE (70 degrees) at 9 MPH (8 knots; 4.1 m/s)
Visibility: 6 or more miles (10+ km)
Ceiling: ceiling and visibility are OK
Clouds: unknown
Weather: no significant weather observed at this time

Forecast for: EGGP (LIVERPOOL AIRPOR, GB)
Text: TAF EGGP 130454Z 1306/1406 09004KT CAVOK
Forecast period: 0600 UTC 13 August 2022 to 0600 UTC 14 August 2022
Forecast type: FROM: standard forecast or significant change
Winds: from the E (90 degrees) at 5 MPH (4 knots; 2.1 m/s)
Visibility: 6 or more miles (10+ km)
Ceiling: unknown
Clouds: missing
Weather: NSW  (no significant weather)